Indianapolis, IN (46239)

7:16 AM EDT on July 03, 2015 (GMT -0400)
Wildcat Park-SE Side | | Change Station
CLOSE
Current Station
Personal Weather Station
Location: Indianapolis, IN
Elevation: 850 ft
Nearby Weather Stations

Elev 850 ft 39.69 °N, 86.03 °W | Updated 4 seconds ago

Overcast
Overcast
62.4 °F
Feels Like 62.4 °F
N
1.0
Wind Variable Wind from NNE
Gusts 7.0 mph

Today
High -- | Low -- °F
--% Chance of Precip.
Yesterday
High -- | Low -- °F
Precip. -- in
6:20 AM 9:15 PM
Full, 98% visible
Pressure 29.88 in
Visibility 10.0 miles
Clouds Scattered Clouds 1900 ft
Overcast 3600 ft
Dew Point 61 °F
Humidity 96%
Rainfall 0.42 in
Snow Depth Not available.
UV 0 out of 12
Pollen .50 out of 12
Air Quality Not available.
Flu Activity Not available.
METAR KIND 031054Z 04008KT 10SM SCT019 OVC036 17/15 A2989 RMK AO2 SLP116 T01720150

More Conditions Fewer Conditions

Pressure 29.88 in
Visibility 10.0 miles
Clouds Scattered Clouds 1900 ft
Overcast 3600 ft
Dew Point 61 °F
Humidity 96%
Rainfall 0.42 in
Snow Depth Not available.
UV 0 out of 12
Pollen .50 out of 12
Air Quality Not available.
Flu Activity Not available.
METAR KIND 031054Z 04008KT 10SM SCT019 OVC036 17/15 A2989 RMK AO2 SLP116 T01720150

More Conditions Fewer Conditions

10-Day Weather Forecast

×

Almanac

Astronomy

Jul. 03, 2015 Rise Set
Actual Time
Civil Twilight
Nautical Twilight
Astronomical Twilight
Moon
Length of Visible Light
Length of Day
Tomorrow will be .
, % of the Moon is Illuminated

Today's Extremes

State Highs State Lows

Community

WunderPhotos

Upload Photos

1,834,650 photos uploaded!

WunderBlogs® & News

Nearby

Air Quality

  Air Quality AQ Index Pollutant
Not available.

Snow Depth

Station Depth Elevation

Earthquake Activity

City Distance Mag. Time & Date
Minimum magnitude displayed is 2.5.

Coastal Water Temperatures

Place Temperature

Stations

Nearby Weather Stations

Station Location Temp. Windchill Dew Point Humidity Wind Precip. Elev Updated Type